^^
Saratoga-Weather Station Historical Data
Daily Summary for July 18, 2020 Units:  Both    English   Metric
Daily Weekly Monthly Yearly Custom
  High: Low: Average:
Temperature: 56.7 °F /  13.7 °C 52.7 °F /  11.5 °C 54.1 °F /  12.3 °C
Dew Point: 50 °F /  10 °C 47.7 °F /  8.7 °C 48.6 °F /  9.2 °C
Humidity: 86% 73% 81%
Wind Speed: 0.9mph /  1.4km/h - 0.1mph /  0.1km/h
Wind Gust: 3mph /  4.8km/h - -
Wind- - SSW
Pressure: 29.9 in /  1013.2 hPa 29.9 in /  1012.2 hPa -
Precipitation: 0 in /  0.0 mm    
Historical Graphs
 
 
Tabular Data for July 18, 2020
Time Temperature Dew Point Pressure Wind Wind Speed Wind Gust Humidity Rainfall Rate (Hourly) solar
00:01 55.8 °F /  13.2 °C 47.7 °F /  8.7 °C 29.9in /  1012.5hPa WNW 0.9mph /  1.4km/h 1mph /  1.6km/h 74% 0in /  0.0mm 0 W/m2
00:06 55.9 °F /  13.3 °C 48.2 °F /  9 °C 29.9in /  1012.5hPa Calm     75% 0in /  0.0mm 0 W/m2
00:11 55.9 °F /  13.3 °C 47.8 °F /  8.8 °C 29.9in /  1012.2hPa Calm     74% 0in /  0.0mm 0 W/m2
00:16 56.1 °F /  13.4 °C 48 °F /  8.9 °C 29.9in /  1012.2hPa Calm     74% 0in /  0.0mm 0 W/m2
00:21 56.5 °F /  13.6 °C 48.4 °F /  9.1 °C 29.9in /  1012.2hPa Calm     74% 0in /  0.0mm 0 W/m2
00:26 56.5 °F /  13.6 °C 48.4 °F /  9.1 °C 29.9in /  1012.2hPa Calm   1mph /  1.6km/h 74% 0in /  0.0mm 0 W/m2
00:31 56.7 °F /  13.7 °C 48 °F /  8.9 °C 29.9in /  1012.2hPa WNW 0.9mph /  1.4km/h 1mph /  1.6km/h 73% 0in /  0.0mm 0 W/m2
00:36 56.7 °F /  13.7 °C 48 °F /  8.9 °C 29.9in /  1012.2hPa Calm     73% 0in /  0.0mm 0 W/m2
00:41 56.7 °F /  13.7 °C 48 °F /  8.9 °C 29.9in /  1012.5hPa Calm     73% 0in /  0.0mm 0 W/m2
00:46 56.5 °F /  13.6 °C 48.4 °F /  9.1 °C 29.9in /  1012.2hPa Calm   1mph /  1.6km/h 74% 0in /  0.0mm 0 W/m2
00:51 56.3 °F /  13.5 °C 48.2 °F /  9 °C 29.9in /  1012.5hPa Calm   1mph /  1.6km/h 74% 0in /  0.0mm 0 W/m2
00:56 56.1 °F /  13.4 °C 48 °F /  8.9 °C 29.9in /  1012.5hPa Calm     74% 0in /  0.0mm 0 W/m2
01:02 55.9 °F /  13.3 °C 47.8 °F /  8.8 °C 29.9in /  1012.2hPa WNW 0.9mph /  1.4km/h 1mph /  1.6km/h 74% 0in /  0.0mm 0 W/m2
01:07 55.9 °F /  13.3 °C 48.2 °F /  9 °C 29.9in /  1012.2hPa Calm     75% 0in /  0.0mm 0 W/m2
01:12 55.9 °F /  13.3 °C 48.2 °F /  9 °C 29.9in /  1012.2hPa Calm   1mph /  1.6km/h 75% 0in /  0.0mm 0 W/m2
01:17 55.8 °F /  13.2 °C 48 °F /  8.9 °C 29.9in /  1012.2hPa Calm     75% 0in /  0.0mm 0 W/m2
01:22 55.8 °F /  13.2 °C 48.4 °F /  9.1 °C 29.9in /  1012.2hPa Calm   1mph /  1.6km/h 76% 0in /  0.0mm 0 W/m2
01:27 55.6 °F /  13.1 °C 48.2 °F /  9 °C 29.9in /  1012.5hPa Calm     76% 0in /  0.0mm 0 W/m2
01:32 55.4 °F /  13 °C 48 °F /  8.9 °C 29.9in /  1012.5hPa Calm     76% 0in /  0.0mm 0 W/m2
01:37 55.2 °F /  12.9 °C 47.8 °F /  8.8 °C 29.9in /  1012.5hPa Calm     76% 0in /  0.0mm 0 W/m2
01:42 55 °F /  12.8 °C 48 °F /  8.9 °C 29.9in /  1012.5hPa Calm     77% 0in /  0.0mm 0 W/m2
01:47 54.9 °F /  12.7 °C 47.8 °F /  8.8 °C 29.9in /  1012.5hPa Calm     77% 0in /  0.0mm 0 W/m2
01:52 54.7 °F /  12.6 °C 48 °F /  8.9 °C 29.9in /  1012.5hPa Calm     78% 0in /  0.0mm 0 W/m2
01:57 54.3 °F /  12.4 °C 48 °F /  8.9 °C 29.9in /  1012.5hPa Calm     79% 0in /  0.0mm 0 W/m2
02:02 54.3 °F /  12.4 °C 48 °F /  8.9 °C 29.9in /  1012.5hPa Calm   1mph /  1.6km/h 79% 0in /  0.0mm 0 W/m2
02:07 54.3 °F /  12.4 °C 48 °F /  8.9 °C 29.9in /  1012.5hPa Calm     79% 0in /  0.0mm 0 W/m2
02:12 54.1 °F /  12.3 °C 47.8 °F /  8.8 °C 29.9in /  1012.5hPa Calm   1mph /  1.6km/h 79% 0in /  0.0mm 0 W/m2
02:17 54.1 °F /  12.3 °C 48 °F /  8.9 °C 29.9in /  1012.5hPa Calm     80% 0in /  0.0mm 0 W/m2
02:22 54.1 °F /  12.3 °C 48 °F /  8.9 °C 29.9in /  1012.5hPa Calm     80% 0in /  0.0mm 0 W/m2
02:27 54.1 °F /  12.3 °C 48 °F /  8.9 °C 29.9in /  1012.5hPa Calm     80% 0in /  0.0mm 0 W/m2
02:32 54.1 °F /  12.3 °C 48 °F /  8.9 °C 29.9in /  1012.5hPa Calm     80% 0in /  0.0mm 0 W/m2
02:37 54.1 °F /  12.3 °C 48 °F /  8.9 °C 29.9in /  1012.5hPa Calm     80% 0in /  0.0mm 0 W/m2
02:42 54.1 °F /  12.3 °C 48 °F /  8.9 °C 29.9in /  1012.5hPa Calm   1mph /  1.6km/h 80% 0in /  0.0mm 0 W/m2
02:47 54.1 °F /  12.3 °C 48 °F /  8.9 °C 29.9in /  1012.5hPa Calm     80% 0in /  0.0mm 0 W/m2
02:52 54 °F /  12.2 °C 48 °F /  8.9 °C 29.9in /  1012.5hPa Calm     80% 0in /  0.0mm 0 W/m2
02:57 54 °F /  12.2 °C 48.2 °F /  9 °C 29.9in /  1012.5hPa Calm     81% 0in /  0.0mm 0 W/m2
03:02 53.8 °F /  12.1 °C 48 °F /  8.9 °C 29.9in /  1012.5hPa Calm     81% 0in /  0.0mm 0 W/m2
03:07 53.8 °F /  12.1 °C 48 °F /  8.9 °C 29.9in /  1012.5hPa Calm     81% 0in /  0.0mm 0 W/m2
03:12 53.6 °F /  12 °C 47.8 °F /  8.8 °C 29.9in /  1012.5hPa Calm     81% 0in /  0.0mm 0 W/m2
03:17 53.4 °F /  11.9 °C 48 °F /  8.9 °C 29.9in /  1012.5hPa Calm     82% 0in /  0.0mm 0 W/m2
03:22 53.4 °F /  11.9 °C 48 °F /  8.9 °C 29.9in /  1012.5hPa Calm     82% 0in /  0.0mm 0 W/m2
03:27 53.4 °F /  11.9 °C 48.4 °F /  9.1 °C 29.9in /  1012.5hPa Calm     83% 0in /  0.0mm 0 W/m2
03:32 53.4 °F /  11.9 °C 48.4 °F /  9.1 °C 29.9in /  1012.5hPa Calm     83% 0in /  0.0mm 0 W/m2
03:37 53.4 °F /  11.9 °C 48.4 °F /  9.1 °C 29.9in /  1012.5hPa Calm     83% 0in /  0.0mm 0 W/m2
03:42 53.2 °F /  11.8 °C 48.2 °F /  9 °C 29.9in /  1012.5hPa Calm     83% 0in /  0.0mm 0 W/m2
03:47 53.2 °F /  11.8 °C 48.2 °F /  9 °C 29.9in /  1012.5hPa Calm     83% 0in /  0.0mm 0 W/m2
03:52 53.2 °F /  11.8 °C 48.2 °F /  9 °C 29.9in /  1012.5hPa Calm     83% 0in /  0.0mm 0 W/m2
03:57 53.2 °F /  11.8 °C 48.6 °F /  9.2 °C 29.9in /  1012.5hPa Calm     84% 0in /  0.0mm 0 W/m2
04:02 53.2 °F /  11.8 °C 48.6 °F /  9.2 °C 29.9in /  1012.5hPa Calm     84% 0in /  0.0mm 0 W/m2
04:07 53.1 °F /  11.7 °C 48.4 °F /  9.1 °C 29.9in /  1012.5hPa WNW 0.9mph /  1.4km/h 2mph /  3.2km/h 84% 0in /  0.0mm 0 W/m2
04:12 53.2 °F /  11.8 °C 48.6 °F /  9.2 °C 29.9in /  1012.5hPa Calm     84% 0in /  0.0mm 0 W/m2
04:17 53.1 °F /  11.7 °C 48.4 °F /  9.1 °C 29.9in /  1012.5hPa Calm     84% 0in /  0.0mm 0 W/m2
04:22 53.1 °F /  11.7 °C 48.4 °F /  9.1 °C 29.9in /  1012.5hPa Calm     84% 0in /  0.0mm 0 W/m2
04:27 52.9 °F /  11.6 °C 48.2 °F /  9 °C 29.9in /  1012.5hPa Calm     84% 0in /  0.0mm 0 W/m2
04:32 52.9 °F /  11.6 °C 48.2 °F /  9 °C 29.9in /  1012.5hPa Calm     84% 0in /  0.0mm 0 W/m2
04:37 52.9 °F /  11.6 °C 48.2 °F /  9 °C 29.9in /  1012.5hPa Calm     84% 0in /  0.0mm 0 W/m2
04:42 52.7 °F /  11.5 °C 48.4 °F /  9.1 °C 29.9in /  1012.5hPa Calm     85% 0in /  0.0mm 0 W/m2
04:47 52.7 °F /  11.5 °C 48.4 °F /  9.1 °C 29.9in /  1012.5hPa Calm     85% 0in /  0.0mm 0 W/m2
04:52 52.7 °F /  11.5 °C 48.4 °F /  9.1 °C 29.9in /  1012.5hPa Calm     85% 0in /  0.0mm 0 W/m2
04:57 52.9 °F /  11.6 °C 48.7 °F /  9.3 °C 29.9in /  1012.5hPa Calm     86% 0in /  0.0mm 0 W/m2
05:02 53.1 °F /  11.7 °C 48.9 °F /  9.4 °C 29.9in /  1012.2hPa Calm     86% 0in /  0.0mm 0 W/m2
05:07 53.1 °F /  11.7 °C 48.7 °F /  9.3 °C 29.9in /  1012.2hPa Calm     85% 0in /  0.0mm 0 W/m2
05:12 53.2 °F /  11.8 °C 48.9 °F /  9.4 °C 29.9in /  1012.5hPa Calm     85% 0in /  0.0mm 0 W/m2
05:17 53.2 °F /  11.8 °C 48.9 °F /  9.4 °C 29.9in /  1012.2hPa Calm     85% 0in /  0.0mm 0 W/m2
05:22 53.2 °F /  11.8 °C 48.9 °F /  9.4 °C 29.9in /  1012.2hPa Calm     85% 0in /  0.0mm 0 W/m2
05:27 53.2 °F /  11.8 °C 48.9 °F /  9.4 °C 29.9in /  1012.5hPa Calm     85% 0in /  0.0mm 0 W/m2
05:32 53.2 °F /  11.8 °C 48.9 °F /  9.4 °C 29.9in /  1012.5hPa Calm     85% 0in /  0.0mm 0 W/m2
05:37 53.2 °F /  11.8 °C 48.9 °F /  9.4 °C 29.9in /  1012.5hPa Calm     85% 0in /  0.0mm 0 W/m2
05:42 53.4 °F /  11.9 °C 49.3 °F /  9.6 °C 29.9in /  1012.5hPa Calm     86% 0in /  0.0mm 0 W/m2
05:47 53.4 °F /  11.9 °C 49.3 °F /  9.6 °C 29.9in /  1012.5hPa Calm     86% 0in /  0.0mm 0 W/m2
05:52 53.4 °F /  11.9 °C 49.1 °F /  9.5 °C 29.9in /  1012.5hPa Calm     85% 0in /  0.0mm 0 W/m2
05:57 53.4 °F /  11.9 °C 49.3 °F /  9.6 °C 29.9in /  1012.9hPa Calm     86% 0in /  0.0mm 0 W/m2
06:02 53.6 °F /  12 °C 49.5 °F /  9.7 °C 29.9in /  1012.9hPa Calm     86% 0in /  0.0mm 0 W/m2
06:07 53.6 °F /  12 °C 49.5 °F /  9.7 °C 29.9in /  1012.9hPa Calm     86% 0in /  0.0mm 0 W/m2
06:12 53.6 °F /  12 °C 49.5 °F /  9.7 °C 29.9in /  1012.9hPa Calm     86% 0in /  0.0mm 0 W/m2
06:17 53.6 °F /  12 °C 49.5 °F /  9.7 °C 29.9in /  1012.9hPa Calm     86% 0in /  0.0mm 0 W/m2
06:22 53.8 °F /  12.1 °C 49.6 °F /  9.8 °C 29.9in /  1012.9hPa Calm     86% 0in /  0.0mm 0 W/m2
06:27 53.8 °F /  12.1 °C 49.6 °F /  9.8 °C 29.9in /  1013.2hPa Calm     86% 0in /  0.0mm 0 W/m2
06:32 53.8 °F /  12.1 °C 49.6 °F /  9.8 °C 29.9in /  1012.9hPa NE 0.9mph /  1.4km/h 3mph /  4.8km/h 86% 0in /  0.0mm 0 W/m2
06:37 54 °F /  12.2 °C 49.6 °F /  9.8 °C 29.9in /  1012.9hPa NNE 0.9mph /  1.4km/h 1mph /  1.6km/h 85% 0in /  0.0mm 0 W/m2
06:42 54 °F /  12.2 °C 49.6 °F /  9.8 °C 29.9in /  1012.9hPa Calm     85% 0in /  0.0mm 0 W/m2
06:47 54.1 °F /  12.3 °C 49.8 °F /  9.9 °C 29.9in /  1012.9hPa Calm     85% 0in /  0.0mm 0 W/m2
06:52 54.1 °F /  12.3 °C 49.8 °F /  9.9 °C 29.9in /  1013.2hPa Calm     85% 0in /  0.0mm 5 W/m2
06:57 54.1 °F /  12.3 °C 49.8 °F /  9.9 °C 29.9in /  1013.2hPa Calm   1mph /  1.6km/h 85% 0in /  0.0mm 9 W/m2
07:02 54 °F /  12.2 °C 49.6 °F /  9.8 °C 29.9in /  1013.2hPa Calm     85% 0in /  0.0mm 12 W/m2
07:07 54 °F /  12.2 °C 49.6 °F /  9.8 °C 29.9in /  1013.2hPa Calm   1mph /  1.6km/h 85% 0in /  0.0mm 18 W/m2
07:13 54 °F /  12.2 °C 49.8 °F /  9.9 °C 29.9in /  1013.2hPa Calm   1mph /  1.6km/h 86% 0in /  0.0mm 23 W/m2
07:18 54 °F /  12.2 °C 49.8 °F /  9.9 °C 29.9in /  1013.2hPa Calm     86% 0in /  0.0mm 32 W/m2
07:23 54 °F /  12.2 °C 49.8 °F /  9.9 °C 29.9in /  1013.2hPa Calm     86% 0in /  0.0mm 32 W/m2
07:28 54.1 °F /  12.3 °C 50 °F /  10 °C 29.9in /  1013.2hPa Calm   1mph /  1.6km/h 86% 0in /  0.0mm 33 W/m2
Juneau County Weather
Compliments of Weather Underground - 2 mb